createdAt,value
2023-04-04T00:00:04.150Z,0.00
2023-04-04T00:01:03.804Z,0.00
2023-04-04T00:02:03.612Z,0.00
2023-04-04T00:03:03.130Z,0.00
2023-04-04T00:04:03.324Z,0.00
2023-04-04T00:05:03.026Z,0.00
2023-04-04T00:06:03.291Z,0.00
2023-04-04T00:07:03.601Z,0.00
2023-04-04T00:08:03.672Z,0.00
2023-04-04T00:09:03.403Z,0.00
2023-04-04T00:10:03.503Z,0.00
2023-04-04T00:11:03.698Z,0.00
2023-04-04T00:12:03.972Z,0.00
2023-04-04T00:13:04.145Z,0.08
2023-04-04T00:14:04.276Z,0.48
2023-04-04T00:15:04.287Z,0.08
2023-04-04T00:16:04.452Z,0.00
2023-04-04T00:17:03.796Z,0.00
2023-04-04T00:18:03.976Z,0.00
2023-04-04T00:19:03.491Z,0.00
2023-04-04T00:20:03.608Z,0.00
2023-04-04T00:21:03.692Z,0.04
2023-04-04T00:22:03.794Z,0.56
2023-04-04T00:23:04.143Z,0.00
2023-04-04T00:24:04.207Z,0.00
2023-04-04T00:25:04.456Z,0.00
2023-04-04T00:26:03.767Z,0.00
2023-04-04T00:27:03.144Z,0.00
2023-04-04T00:28:03.178Z,0.00
2023-04-04T00:29:03.331Z,0.00
2023-04-04T00:30:03.461Z,0.00
2023-04-04T00:31:03.488Z,0.00
2023-04-04T00:32:03.847Z,0.00
2023-04-04T00:33:04.044Z,0.00
2023-04-04T00:34:03.965Z,0.00
2023-04-04T00:35:04.133Z,0.00
2023-04-04T00:36:03.509Z,0.00
2023-04-04T00:37:02.768Z,0.00
2023-04-04T00:38:03.127Z,0.16
2023-04-04T00:39:03.295Z,1.04
2023-04-04T00:40:03.263Z,0.85
2023-04-04T00:41:03.122Z,0.57
2023-04-04T00:42:03.517Z,1.04
2023-04-04T00:43:03.137Z,1.26
2023-04-04T00:44:03.308Z,1.04
2023-04-04T00:45:03.481Z,0.52
2023-04-04T00:46:03.494Z,0.68
2023-04-04T00:47:04.041Z,0.76
2023-04-04T00:48:03.981Z,0.16
2023-04-04T00:49:03.958Z,0.12
2023-04-04T00:50:03.599Z,0.12
2023-04-04T00:51:03.637Z,0.44
2023-04-04T00:52:03.272Z,0.12
2023-04-04T00:53:03.323Z,0.04
2023-04-04T00:54:03.559Z,0.44
2023-04-04T00:55:03.450Z,0.00
2023-04-04T00:56:03.258Z,0.00
2023-04-04T00:57:03.372Z,0.40
2023-04-04T00:58:03.518Z,0.68
2023-04-04T00:59:03.811Z,0.52
2023-04-04T01:00:03.702Z,0.00
2023-04-04T01:01:03.621Z,0.00
2023-04-04T01:02:03.570Z,0.00
2023-04-04T01:03:03.585Z,0.00
2023-04-04T01:04:03.726Z,0.00
2023-04-04T01:05:03.701Z,0.00
2023-04-04T01:06:03.702Z,0.00
2023-04-04T01:07:04.158Z,0.00
2023-04-04T01:08:04.026Z,0.00
2023-04-04T01:09:04.072Z,0.00
2023-04-04T01:10:03.580Z,0.00
2023-04-04T01:11:04.223Z,0.00
2023-04-04T01:12:03.206Z,0.00
2023-04-04T01:13:03.496Z,0.00
2023-04-04T01:14:03.202Z,0.00
2023-04-04T01:15:03.365Z,0.00
2023-04-04T01:16:03.519Z,0.00
2023-04-04T01:17:03.730Z,0.00
2023-04-04T01:18:04.042Z,0.00
2023-04-04T01:19:03.632Z,0.00
2023-04-04T01:20:03.575Z,0.00
2023-04-04T01:21:03.438Z,0.00
2023-04-04T01:22:03.516Z,0.00
2023-04-04T01:23:02.955Z,0.00
2023-04-04T01:24:03.531Z,0.00
2023-04-04T01:25:03.594Z,0.00
2023-04-04T01:26:03.596Z,0.00
2023-04-04T01:27:03.599Z,0.00
2023-04-04T01:28:03.915Z,0.00
2023-04-04T01:29:03.408Z,0.00
2023-04-04T01:30:03.979Z,0.00
2023-04-04T01:31:03.464Z,0.00
2023-04-04T01:32:02.928Z,0.00
2023-04-04T01:33:03.002Z,0.00
2023-04-04T01:34:03.231Z,0.00
2023-04-04T01:35:03.422Z,0.00
2023-04-04T01:36:03.299Z,0.00
2023-04-04T01:37:03.373Z,0.00
2023-04-04T01:38:03.128Z,0.00
2023-04-04T01:39:03.506Z,0.00
2023-04-04T01:40:03.575Z,0.00
2023-04-04T01:41:03.682Z,0.00
2023-04-04T01:42:03.538Z,0.33
2023-04-04T01:43:03.359Z,0.00
2023-04-04T01:44:03.756Z,0.00
2023-04-04T01:45:03.928Z,0.00
2023-04-04T01:46:03.463Z,0.53
2023-04-04T01:47:03.157Z,0.00
2023-04-04T01:48:03.365Z,0.00
2023-04-04T01:49:03.450Z,0.00
2023-04-04T01:50:03.372Z,0.00
2023-04-04T01:51:03.015Z,0.00
2023-04-04T01:52:02.847Z,0.00
2023-04-04T01:53:03.142Z,0.00
2023-04-04T01:54:03.152Z,0.00
2023-04-04T01:55:02.921Z,0.00
2023-04-04T01:56:03.218Z,0.00
2023-04-04T01:57:02.866Z,0.24
2023-04-04T01:58:03.020Z,1.04
2023-04-04T01:59:03.144Z,0.64
2023-04-04T02:00:02.839Z,0.00
2023-04-04T02:01:02.937Z,0.00
2023-04-04T02:02:03.719Z,0.00
2023-04-04T02:03:03.554Z,0.00
2023-04-04T02:04:03.897Z,0.00
2023-04-04T02:05:03.466Z,0.00
2023-04-04T02:06:03.551Z,0.08
2023-04-04T02:07:04.338Z,0.52
2023-04-04T02:08:03.887Z,0.00
2023-04-04T02:09:04.273Z,0.00
2023-04-04T02:10:03.857Z,0.00
2023-04-04T02:11:04.351Z,0.00
2023-04-04T02:12:03.515Z,0.85
2023-04-04T02:13:02.931Z,0.85
2023-04-04T02:14:03.316Z,0.88
2023-04-04T02:15:03.521Z,0.40
2023-04-04T02:16:03.146Z,0.00
2023-04-04T02:17:03.704Z,0.00
2023-04-04T02:18:04.022Z,0.00
2023-04-04T02:19:03.301Z,0.00
2023-04-04T02:20:03.860Z,0.00
2023-04-04T02:21:03.870Z,0.00
2023-04-04T02:22:03.933Z,0.00
2023-04-04T02:23:03.581Z,0.00
2023-04-04T02:24:03.753Z,0.28
2023-04-04T02:25:03.404Z,0.33
2023-04-04T02:26:03.721Z,0.36
2023-04-04T02:27:02.922Z,0.00
2023-04-04T02:28:03.211Z,0.96
2023-04-04T02:29:03.589Z,0.48
2023-04-04T02:30:03.056Z,0.00
2023-04-04T02:31:03.528Z,0.04
2023-04-04T02:32:03.609Z,0.52
2023-04-04T02:33:03.101Z,0.90
2023-04-04T02:34:03.156Z,1.08
2023-04-04T02:35:03.298Z,0.68
2023-04-04T02:36:03.404Z,0.00
2023-04-04T02:37:03.156Z,0.61
2023-04-04T02:38:03.537Z,0.00
2023-04-04T02:39:03.589Z,0.00
2023-04-04T02:40:03.562Z,0.61
2023-04-04T02:41:03.215Z,0.00
2023-04-04T02:42:03.430Z,0.00
2023-04-04T02:43:03.877Z,0.00
2023-04-04T02:44:04.024Z,0.00
2023-04-04T02:45:03.545Z,0.00
2023-04-04T02:46:10.978Z,0.00
2023-04-04T02:47:03.035Z,0.33
2023-04-04T02:48:03.278Z,1.08
2023-04-04T02:49:03.529Z,1.08
2023-04-04T02:50:02.978Z,0.77
2023-04-04T02:51:03.249Z,0.56
2023-04-04T02:52:03.306Z,0.60
2023-04-04T02:53:03.368Z,0.00
2023-04-04T02:54:03.449Z,0.00
2023-04-04T02:55:03.657Z,0.00
2023-04-04T02:56:03.812Z,0.00
2023-04-04T02:57:02.968Z,0.00
2023-04-04T02:58:03.445Z,0.08
2023-04-04T02:59:02.965Z,0.81
2023-04-04T03:00:03.124Z,0.40
2023-04-04T03:01:03.333Z,0.00
2023-04-04T03:02:03.538Z,0.00
2023-04-04T03:03:03.750Z,0.00
2023-04-04T03:04:03.851Z,0.00
2023-04-04T03:05:03.797Z,0.00
2023-04-04T03:06:03.861Z,0.00
2023-04-04T03:07:04.472Z,0.24
2023-04-04T03:08:03.925Z,0.00
2023-04-04T03:09:03.978Z,0.00
2023-04-04T03:10:03.950Z,0.24
2023-04-04T03:11:04.496Z,0.32
2023-04-04T03:12:03.742Z,0.73
2023-04-04T03:13:03.783Z,0.92
2023-04-04T03:14:03.843Z,0.68
2023-04-04T03:15:03.574Z,0.00
2023-04-04T03:16:03.668Z,0.64
2023-04-04T03:17:03.774Z,0.88
2023-04-04T03:18:04.127Z,0.56
2023-04-04T03:19:03.983Z,0.00
2023-04-04T03:20:03.899Z,0.53
2023-04-04T03:21:03.966Z,0.84
2023-04-04T03:22:04.117Z,0.28
2023-04-04T03:23:04.179Z,0.00
2023-04-04T03:24:04.288Z,0.00
2023-04-04T03:25:04.372Z,0.00
2023-04-04T03:26:04.561Z,0.00
2023-04-04T03:27:04.278Z,0.00
2023-04-04T03:28:04.099Z,0.00
2023-04-04T03:29:04.619Z,0.96
2023-04-04T03:30:04.611Z,0.88
2023-04-04T03:31:04.200Z,0.69
2023-04-04T03:32:03.664Z,0.53
2023-04-04T03:33:03.356Z,0.85
2023-04-04T03:34:03.604Z,0.12
2023-04-04T03:35:03.195Z,0.00
2023-04-04T03:36:03.368Z,0.00
2023-04-04T03:37:03.691Z,0.00
2023-04-04T03:38:03.944Z,0.00
2023-04-04T03:39:04.002Z,0.00
2023-04-04T03:40:03.986Z,0.16
2023-04-04T03:41:03.444Z,0.98
2023-04-04T03:42:04.261Z,1.08
2023-04-04T03:43:03.717Z,0.45
2023-04-04T03:44:03.925Z,0.00
2023-04-04T03:45:04.054Z,0.00
2023-04-04T03:46:04.319Z,0.00
2023-04-04T03:47:03.144Z,0.00
2023-04-04T03:48:03.564Z,0.00
2023-04-04T03:49:03.426Z,0.00
2023-04-04T03:50:03.652Z,0.00
2023-04-04T03:51:03.244Z,0.00
2023-04-04T03:52:03.304Z,0.00
2023-04-04T03:53:03.458Z,0.00
2023-04-04T03:54:03.123Z,0.00
2023-04-04T03:55:03.254Z,0.00
2023-04-04T03:56:03.315Z,0.00
2023-04-04T03:57:03.761Z,0.68
2023-04-04T03:58:03.773Z,1.32
2023-04-04T03:59:03.462Z,0.98
2023-04-04T04:00:03.518Z,0.76
2023-04-04T04:01:03.770Z,0.72
2023-04-04T04:02:04.321Z,0.00
2023-04-04T04:03:04.774Z,0.00
2023-04-04T04:04:04.287Z,0.00
2023-04-04T04:05:04.497Z,0.00
2023-04-04T04:06:04.614Z,0.00
2023-04-04T04:07:04.581Z,0.00
2023-04-04T04:08:04.852Z,0.00
2023-04-04T04:09:04.497Z,0.00
2023-04-04T04:10:04.828Z,0.00
2023-04-04T04:11:04.659Z,0.00
2023-04-04T04:12:03.823Z,0.33
2023-04-04T04:13:03.906Z,1.00
2023-04-04T04:14:04.209Z,1.08
2023-04-04T04:15:03.637Z,0.90
2023-04-04T04:16:04.150Z,0.76
2023-04-04T04:17:04.490Z,0.00
2023-04-04T04:18:04.039Z,0.00
2023-04-04T04:19:04.212Z,0.32
2023-04-04T04:20:04.201Z,0.92
2023-04-04T04:21:04.314Z,1.00
2023-04-04T04:22:04.619Z,0.56
2023-04-04T04:23:04.830Z,0.00
2023-04-04T04:24:04.199Z,0.33
2023-04-04T04:25:04.599Z,0.00
2023-04-04T04:26:04.570Z,0.00
2023-04-04T04:27:03.652Z,0.00
2023-04-04T04:28:03.480Z,0.00
2023-04-04T04:29:03.724Z,1.04
2023-04-04T04:30:03.827Z,0.36
2023-04-04T04:31:04.112Z,0.00
2023-04-04T04:32:04.332Z,0.00
2023-04-04T04:33:04.549Z,0.00
2023-04-04T04:34:04.076Z,0.00
2023-04-04T04:35:04.264Z,0.00
2023-04-04T04:36:04.095Z,0.90
2023-04-04T04:37:04.470Z,0.88
2023-04-04T04:38:04.330Z,0.90
2023-04-04T04:39:04.451Z,0.52
2023-04-04T04:40:04.454Z,0.00
2023-04-04T04:41:04.630Z,0.00
2023-04-04T04:42:03.912Z,0.00
2023-04-04T04:43:03.730Z,0.00
2023-04-04T04:44:04.124Z,0.28
2023-04-04T04:45:03.642Z,0.98
2023-04-04T04:46:03.887Z,0.88
2023-04-04T04:47:03.890Z,0.41
2023-04-04T04:48:04.176Z,0.16
2023-04-04T04:49:03.652Z,0.65
2023-04-04T04:50:03.933Z,0.36
2023-04-04T04:51:03.566Z,0.00
2023-04-04T04:52:04.019Z,0.00
2023-04-04T04:53:03.975Z,0.24
2023-04-04T04:54:04.039Z,0.00
2023-04-04T04:55:04.264Z,0.64
2023-04-04T04:56:03.738Z,0.85
2023-04-04T04:57:04.601Z,0.28
2023-04-04T04:58:04.843Z,0.00
2023-04-04T04:59:04.434Z,0.00
2023-04-04T05:00:04.754Z,0.00
2023-04-04T05:01:04.634Z,0.00
2023-04-04T05:02:04.042Z,0.00
2023-04-04T05:03:03.791Z,0.00
2023-04-04T05:04:03.864Z,0.00
2023-04-04T05:05:04.102Z,0.00
2023-04-04T05:06:03.693Z,0.00
2023-04-04T05:07:04.052Z,0.00
2023-04-04T05:08:03.678Z,0.00
2023-04-04T05:09:03.927Z,0.00
2023-04-04T05:10:03.832Z,0.00
2023-04-04T05:11:05.478Z,0.00
2023-04-04T05:12:04.367Z,0.00
2023-04-04T05:13:03.946Z,0.00
2023-04-04T05:14:04.299Z,0.00
2023-04-04T05:15:03.956Z,0.00
2023-04-04T05:16:03.624Z,0.00
2023-04-04T05:17:03.533Z,0.16
2023-04-04T05:18:03.325Z,0.00
2023-04-04T05:19:03.588Z,0.00
2023-04-04T05:20:03.676Z,0.00
2023-04-04T05:21:03.183Z,0.00
2023-04-04T05:22:04.071Z,0.00
2023-04-04T05:23:03.572Z,0.00
2023-04-04T05:24:04.088Z,0.00
2023-04-04T05:25:03.722Z,0.00
2023-04-04T05:26:03.948Z,0.00
2023-04-04T05:27:03.662Z,0.00
2023-04-04T05:28:03.266Z,0.00
2023-04-04T05:29:03.553Z,0.00
2023-04-04T05:30:03.138Z,0.00
2023-04-04T05:31:03.421Z,0.00
2023-04-04T05:32:03.912Z,0.00
2023-04-04T05:33:03.901Z,0.00
2023-04-04T05:34:03.494Z,0.00
2023-04-04T05:35:03.434Z,0.00
2023-04-04T05:36:03.376Z,0.00
2023-04-04T05:37:03.949Z,0.80
2023-04-04T05:38:03.437Z,0.28
2023-04-04T05:39:03.572Z,0.68
2023-04-04T05:40:03.666Z,0.04
2023-04-04T05:41:03.604Z,0.00
2023-04-04T05:42:03.620Z,0.32
2023-04-04T05:43:03.046Z,0.37
2023-04-04T05:44:03.325Z,0.76
2023-04-04T05:45:03.576Z,0.56
2023-04-04T05:46:03.108Z,0.00
2023-04-04T05:47:03.084Z,0.00
2023-04-04T05:48:03.553Z,0.00
2023-04-04T05:49:03.193Z,0.00
2023-04-04T05:50:03.431Z,0.00
2023-04-04T05:51:03.668Z,0.00
2023-04-04T05:52:04.014Z,0.00
2023-04-04T05:53:03.404Z,0.00
2023-04-04T05:54:03.856Z,0.00
2023-04-04T05:55:03.488Z,0.00
2023-04-04T05:56:03.772Z,0.00
2023-04-04T05:57:03.498Z,0.00
2023-04-04T05:58:03.683Z,0.00
2023-04-04T05:59:04.020Z,0.00
2023-04-04T06:00:03.717Z,0.00
2023-04-04T06:01:03.481Z,0.00
2023-04-04T06:02:03.847Z,0.00
2023-04-04T06:03:04.306Z,0.00
2023-04-04T06:04:03.845Z,0.00
2023-04-04T06:05:04.083Z,0.00
2023-04-04T06:06:04.201Z,0.08
2023-04-04T06:07:04.552Z,1.20
2023-04-04T06:08:04.444Z,1.06
2023-04-04T06:09:03.890Z,0.00
2023-04-04T06:10:04.394Z,0.00
2023-04-04T06:11:03.949Z,0.00
2023-04-04T06:12:03.080Z,0.00
2023-04-04T06:13:03.646Z,0.00
2023-04-04T06:14:03.177Z,0.00
2023-04-04T06:15:03.364Z,0.00
2023-04-04T06:16:03.673Z,0.12
2023-04-04T06:17:03.342Z,0.57
2023-04-04T06:18:03.880Z,0.00
2023-04-04T06:19:03.323Z,0.00
2023-04-04T06:20:03.483Z,0.00
2023-04-04T06:21:03.802Z,0.00
2023-04-04T06:22:03.902Z,0.00
2023-04-04T06:23:03.552Z,0.00
2023-04-04T06:24:03.618Z,0.00
2023-04-04T06:25:03.760Z,0.00
2023-04-04T06:26:04.102Z,0.00
2023-04-04T06:27:04.274Z,0.00
2023-04-04T06:28:03.638Z,0.00
2023-04-04T06:29:04.075Z,0.00
2023-04-04T06:30:03.873Z,0.00
2023-04-04T06:31:04.208Z,0.00
2023-04-04T06:32:03.828Z,0.00
2023-04-04T06:33:03.991Z,0.00
2023-04-04T06:34:03.682Z,0.00
2023-04-04T06:35:04.190Z,0.28
2023-04-04T06:36:04.366Z,0.00
2023-04-04T06:37:03.245Z,0.00
2023-04-04T06:38:03.247Z,0.00
2023-04-04T06:39:03.401Z,0.00
2023-04-04T06:40:03.682Z,0.00
2023-04-04T06:41:03.727Z,0.60
2023-04-04T06:42:03.262Z,0.98
2023-04-04T06:43:03.720Z,1.08
2023-04-04T06:44:03.449Z,1.91
2023-04-04T06:45:03.677Z,0.88
2023-04-04T06:46:03.501Z,0.00
2023-04-04T06:47:02.106Z,0.57
2023-04-04T06:48:02.556Z,0.84
2023-04-04T06:49:02.511Z,0.53
2023-04-04T06:50:02.199Z,0.61
2023-04-04T06:51:02.394Z,1.00
2023-04-04T06:52:01.833Z,1.26
2023-04-04T06:53:01.752Z,0.94
2023-04-04T06:54:01.683Z,0.24
2023-04-04T06:55:01.769Z,0.00
2023-04-04T06:56:01.697Z,0.00
2023-04-04T06:57:01.707Z,0.44
2023-04-04T06:58:01.658Z,0.94
2023-04-04T06:59:01.633Z,0.00
2023-04-04T07:00:01.730Z,1.12
2023-04-04T07:01:01.915Z,1.08
2023-04-04T07:02:01.889Z,0.00
2023-04-04T07:03:01.840Z,1.47
2023-04-04T07:04:02.204Z,1.16
2023-04-04T07:05:02.119Z,0.49
2023-04-04T07:06:02.087Z,0.00
2023-04-04T07:07:01.972Z,0.00
2023-04-04T07:08:01.933Z,0.00
2023-04-04T07:09:02.556Z,0.00
2023-04-04T07:10:02.336Z,0.57
2023-04-04T07:11:01.949Z,0.81
2023-04-04T07:12:02.055Z,0.00
2023-04-04T07:13:02.337Z,0.00
2023-04-04T07:14:02.478Z,0.88
2023-04-04T07:15:02.289Z,0.98
2023-04-04T07:16:02.310Z,0.00
2023-04-04T07:17:07.893Z,0.00
2023-04-04T07:18:02.345Z,0.76
2023-04-04T07:19:02.684Z,1.80
2023-04-04T07:20:04.263Z,1.28
2023-04-04T07:21:02.834Z,1.24
2023-04-04T07:22:02.325Z,0.12
2023-04-04T07:23:02.580Z,0.72
2023-04-04T07:24:02.637Z,0.52
2023-04-04T07:25:02.627Z,1.16
2023-04-04T07:26:02.575Z,1.59
2023-04-04T07:27:01.605Z,1.55
2023-04-04T07:28:11.787Z,0.48
2023-04-04T07:29:01.728Z,0.92
2023-04-04T07:30:01.760Z,1.40
2023-04-04T07:31:01.755Z,1.20
2023-04-04T07:32:02.151Z,0.72
2023-04-04T07:33:02.523Z,0.48
2023-04-04T07:34:02.364Z,0.81
2023-04-04T07:35:02.088Z,0.00
2023-04-04T07:36:01.975Z,0.94
2023-04-04T07:37:02.709Z,1.16
2023-04-04T07:38:02.684Z,1.22
2023-04-04T07:39:02.130Z,0.69
2023-04-04T07:40:02.407Z,0.44
2023-04-04T07:41:04.303Z,1.60
2023-04-04T07:42:01.788Z,3.09
2023-04-04T07:43:01.709Z,1.10
2023-04-04T07:44:01.593Z,0.94
2023-04-04T07:45:01.766Z,0.48
2023-04-04T07:46:01.951Z,0.00
2023-04-04T07:47:09.170Z,1.40
2023-04-04T07:48:02.593Z,0.36
2023-04-04T07:49:02.392Z,0.61
2023-04-04T07:50:02.365Z,2.12
2023-04-04T07:51:02.178Z,2.16
2023-04-04T07:52:01.859Z,1.51
2023-04-04T07:53:01.786Z,1.14
2023-04-04T07:54:02.034Z,1.28
2023-04-04T07:55:02.021Z,1.68
2023-04-04T07:56:02.112Z,0.88
2023-04-04T07:57:01.589Z,0.85
2023-04-04T07:58:01.186Z,0.98
2023-04-04T07:59:01.170Z,0.49
2023-04-04T08:00:01.536Z,1.20
2023-04-04T08:01:01.508Z,1.08
2023-04-04T08:02:03.780Z,1.70
2023-04-04T08:03:03.667Z,0.98
2023-04-04T08:04:03.607Z,0.77
2023-04-04T08:05:03.366Z,1.71
2023-04-04T08:06:03.487Z,1.40
2023-04-04T08:07:02.901Z,1.34
2023-04-04T08:08:02.516Z,0.94
2023-04-04T08:09:02.850Z,1.28
2023-04-04T08:10:02.949Z,1.88
2023-04-04T08:11:02.862Z,1.75
2023-04-04T08:12:02.883Z,1.16
2023-04-04T08:13:02.885Z,0.68
2023-04-04T08:14:02.673Z,1.51
2023-04-04T08:15:02.682Z,2.16
2023-04-04T08:16:02.906Z,1.48
2023-04-04T08:17:02.902Z,2.20
2023-04-04T08:18:02.984Z,1.84
2023-04-04T08:19:03.083Z,4.40
2023-04-04T08:20:03.249Z,2.72
2023-04-04T08:21:02.984Z,2.40
2023-04-04T08:22:03.071Z,2.40
2023-04-04T08:23:03.046Z,1.99
2023-04-04T08:24:02.908Z,1.55
2023-04-04T08:25:03.143Z,2.76
2023-04-04T08:26:03.315Z,4.12
2023-04-04T08:27:05.610Z,5.05
2023-04-04T08:28:02.276Z,5.66
2023-04-04T08:29:02.448Z,3.28
2023-04-04T08:30:02.349Z,1.59
2023-04-04T08:31:02.406Z,1.24
2023-04-04T08:32:02.965Z,2.84
2023-04-04T08:33:06.136Z,5.04
2023-04-04T08:34:03.216Z,2.08
2023-04-04T08:35:02.990Z,2.28
2023-04-04T08:36:02.881Z,2.56
2023-04-04T08:37:03.058Z,1.92
2023-04-04T08:38:03.326Z,3.28
2023-04-04T08:39:02.981Z,0.90
2023-04-04T08:40:02.766Z,2.69
2023-04-04T08:41:02.847Z,2.88
2023-04-04T08:42:02.801Z,2.65
2023-04-04T08:43:02.762Z,3.34
2023-04-04T08:44:02.622Z,3.01
2023-04-04T08:45:02.450Z,1.75
2023-04-04T08:46:02.334Z,3.17
2023-04-04T08:47:03.178Z,3.40
2023-04-04T08:48:02.755Z,2.60
2023-04-04T08:49:02.736Z,2.60
2023-04-04T08:50:02.725Z,2.16
2023-04-04T08:51:02.590Z,3.21
2023-04-04T08:52:03.222Z,1.80
2023-04-04T08:53:03.444Z,2.00
2023-04-04T08:54:03.320Z,1.95
2023-04-04T08:55:03.224Z,2.69
2023-04-04T08:56:03.417Z,2.68
2023-04-04T08:57:02.419Z,1.42
2023-04-04T08:58:03.040Z,2.28
2023-04-04T08:59:02.888Z,3.17
2023-04-04T09:00:03.061Z,2.32
2023-04-04T09:01:03.050Z,2.60
2023-04-04T09:02:02.576Z,2.73
2023-04-04T09:03:02.554Z,1.95
2023-04-04T09:04:02.547Z,3.88
2023-04-04T09:05:06.222Z,3.74
2023-04-04T09:06:02.015Z,1.83
2023-04-04T09:07:02.800Z,3.44
2023-04-04T09:08:02.706Z,1.22
2023-04-04T09:09:02.513Z,1.26
2023-04-04T09:10:02.499Z,3.09
2023-04-04T09:11:02.473Z,1.40
2023-04-04T09:12:03.037Z,1.80
2023-04-04T09:13:14.944Z,1.83
2023-04-04T09:14:02.693Z,0.28
2023-04-04T09:15:02.720Z,1.48
2023-04-04T09:16:02.688Z,1.63
2023-04-04T09:17:02.477Z,3.38
2023-04-04T09:18:02.333Z,1.22
2023-04-04T09:19:02.387Z,2.04
2023-04-04T09:20:02.187Z,1.95
2023-04-04T09:21:02.344Z,1.52
2023-04-04T09:22:03.030Z,2.56
2023-04-04T09:23:03.076Z,1.12
2023-04-04T09:24:02.927Z,1.51
2023-04-04T09:25:02.911Z,2.16
2023-04-04T09:26:04.610Z,0.90
2023-04-04T09:27:03.115Z,3.24
2023-04-04T09:28:02.614Z,1.71
2023-04-04T09:29:02.667Z,1.64
2023-04-04T09:30:05.222Z,1.40
2023-04-04T09:31:02.750Z,1.48
2023-04-04T09:32:02.671Z,1.51
2023-04-04T09:33:02.030Z,2.03
2023-04-04T09:34:02.113Z,2.04
2023-04-04T09:35:02.255Z,2.48
2023-04-04T09:36:02.309Z,2.60
2023-04-04T09:37:02.473Z,1.20
2023-04-04T09:38:02.813Z,2.32
2023-04-04T09:39:02.854Z,3.08
2023-04-04T09:40:02.434Z,4.35
2023-04-04T09:41:02.646Z,3.20
2023-04-04T09:42:02.334Z,5.09
2023-04-04T09:43:01.702Z,3.87
2023-04-04T09:44:01.771Z,2.20
2023-04-04T09:45:01.773Z,1.16
2023-04-04T09:46:01.790Z,0.81
2023-04-04T09:47:02.301Z,1.44
2023-04-04T09:48:02.819Z,1.64
2023-04-04T09:49:02.928Z,1.80
2023-04-04T09:50:02.721Z,1.18
2023-04-04T09:51:02.677Z,1.75
2023-04-04T09:52:01.733Z,2.52
2023-04-04T09:53:01.950Z,1.84
2023-04-04T09:54:02.010Z,1.84
2023-04-04T09:55:02.065Z,1.71
2023-04-04T09:56:02.139Z,0.40
2023-04-04T09:57:02.238Z,1.96
2023-04-04T09:58:02.327Z,1.56
2023-04-04T09:59:04.671Z,0.94
2023-04-04T10:00:02.339Z,2.68
2023-04-04T10:01:02.489Z,1.80
2023-04-04T10:02:02.798Z,1.36
2023-04-04T10:03:02.957Z,1.04
2023-04-04T10:04:02.995Z,1.20
2023-04-04T10:05:06.652Z,1.40
2023-04-04T10:06:04.918Z,0.84
2023-04-04T10:07:02.421Z,1.79
2023-04-04T10:08:02.563Z,1.08
2023-04-04T10:09:02.728Z,1.88
2023-04-04T10:10:02.899Z,1.64
2023-04-04T10:11:10.588Z,2.44
2023-04-04T10:12:02.703Z,1.24
2023-04-04T10:13:02.706Z,1.16
2023-04-04T10:14:02.918Z,1.00
2023-04-04T10:15:02.698Z,1.47
2023-04-04T10:16:03.061Z,1.48
2023-04-04T10:17:03.145Z,3.36
2023-04-04T10:18:03.415Z,2.04
2023-04-04T10:19:03.347Z,1.28
2023-04-04T10:20:03.082Z,1.47
2023-04-04T10:21:14.593Z,4.04
2023-04-04T10:22:02.795Z,4.48
2023-04-04T10:23:03.054Z,1.88
2023-04-04T10:24:03.013Z,1.83
2023-04-04T10:25:03.035Z,0.88
2023-04-04T10:26:02.643Z,1.26
2023-04-04T10:27:02.521Z,0.65
2023-04-04T10:28:02.492Z,1.95
2023-04-04T10:29:02.607Z,3.20
2023-04-04T10:30:02.819Z,4.28
2023-04-04T10:31:06.585Z,2.32
2023-04-04T10:32:02.884Z,1.04
2023-04-04T10:33:02.888Z,1.87
2023-04-04T10:34:03.037Z,3.36
2023-04-04T10:35:03.044Z,2.16
2023-04-04T10:36:03.344Z,2.20
2023-04-04T10:37:02.313Z,2.73
2023-04-04T10:38:02.477Z,2.12
2023-04-04T10:39:02.644Z,1.96
2023-04-04T10:40:02.138Z,2.03
2023-04-04T10:41:02.714Z,1.28
2023-04-04T10:42:02.593Z,1.51
2023-04-04T10:43:02.908Z,1.04
2023-04-04T10:44:02.855Z,4.19
2023-04-04T10:45:17.050Z,3.30
2023-04-04T10:46:02.560Z,3.24
2023-04-04T10:47:03.369Z,3.16
2023-04-04T10:48:03.248Z,3.66
2023-04-04T10:49:03.173Z,1.79
2023-04-04T10:50:03.260Z,1.44
2023-04-04T10:51:03.353Z,1.32
2023-04-04T10:52:02.600Z,2.32
2023-04-04T10:53:02.733Z,4.40
2023-04-04T10:54:02.880Z,1.40
2023-04-04T10:55:02.871Z,2.24
2023-04-04T10:56:02.614Z,4.92
2023-04-04T10:57:02.713Z,3.08
2023-04-04T10:58:02.988Z,3.88
2023-04-04T10:59:02.895Z,2.44
2023-04-04T11:00:02.457Z,1.95
2023-04-04T11:01:03.088Z,3.84
2023-04-04T11:02:02.164Z,3.34
2023-04-04T11:03:02.090Z,3.34
2023-04-04T11:04:02.452Z,2.92
2023-04-04T11:05:02.370Z,1.59
2023-04-04T11:06:02.240Z,5.05
2023-04-04T11:07:02.315Z,4.44
2023-04-04T11:08:07.555Z,3.36
2023-04-04T11:09:02.349Z,3.54
2023-04-04T11:10:02.464Z,4.20
2023-04-04T11:11:05.113Z,3.83
2023-04-04T11:12:03.040Z,4.20
2023-04-04T11:13:11.750Z,2.12
2023-04-04T11:14:03.157Z,3.80
2023-04-04T11:15:02.978Z,3.01
2023-04-04T11:16:03.075Z,5.84
2023-04-04T11:17:02.474Z,4.23
2023-04-04T11:18:07.808Z,4.04
2023-04-04T11:19:02.411Z,3.34
2023-04-04T11:20:02.226Z,1.75
2023-04-04T11:21:02.348Z,3.40
2023-04-04T11:22:02.180Z,2.89
2023-04-04T11:23:01.927Z,2.36
2023-04-04T11:24:01.872Z,2.97
2023-04-04T11:25:01.914Z,1.92
2023-04-04T11:26:02.102Z,2.20
2023-04-04T11:27:02.185Z,1.68
2023-04-04T11:28:01.807Z,2.89
2023-04-04T11:29:02.365Z,5.40
2023-04-04T11:30:02.122Z,4.31
2023-04-04T11:31:01.930Z,2.03
2023-04-04T11:32:02.836Z,2.20
2023-04-04T11:34:02.993Z,3.52
2023-04-04T11:35:02.434Z,4.76
2023-04-04T11:36:02.875Z,3.48
2023-04-04T11:37:02.889Z,3.88
2023-04-04T11:38:03.033Z,3.72
2023-04-04T11:39:03.050Z,1.92
2023-04-04T11:40:03.145Z,3.16
2023-04-04T11:41:02.686Z,3.74
2023-04-04T11:42:02.364Z,3.13
2023-04-04T11:43:02.550Z,0.94
2023-04-04T11:44:02.164Z,1.63
2023-04-04T11:45:01.878Z,1.14
2023-04-04T11:46:02.341Z,1.80
2023-04-04T11:47:03.044Z,1.68
2023-04-04T11:48:02.948Z,1.67
2023-04-04T11:49:03.060Z,1.00
2023-04-04T11:50:03.109Z,1.40
2023-04-04T11:51:02.918Z,3.46
2023-04-04T11:52:03.113Z,3.68
2023-04-04T11:53:03.200Z,8.20
2023-04-04T11:54:03.006Z,5.74
2023-04-04T11:55:02.829Z,3.62
2023-04-04T11:56:02.802Z,4.68
2023-04-04T11:57:02.621Z,3.91
2023-04-04T11:58:02.469Z,2.77
2023-04-04T11:59:10.965Z,1.71
2023-04-04T12:00:02.384Z,2.04
2023-04-04T12:01:02.515Z,2.80
2023-04-04T12:02:03.272Z,5.00
2023-04-04T12:03:03.010Z,3.70
2023-04-04T12:04:03.345Z,3.40
2023-04-04T12:05:03.441Z,3.30
2023-04-04T12:06:02.840Z,3.70
2023-04-04T12:07:03.402Z,2.16
2023-04-04T12:08:02.860Z,1.06
2023-04-04T12:09:03.445Z,1.48
2023-04-04T12:10:03.211Z,1.75
2023-04-04T12:11:03.362Z,1.12
2023-04-04T12:12:02.997Z,1.71
2023-04-04T12:13:03.001Z,1.92
2023-04-04T12:14:03.004Z,0.76
2023-04-04T12:15:14.621Z,1.48
2023-04-04T12:16:02.519Z,1.67
2023-04-04T12:17:03.560Z,1.93
2023-04-04T12:18:03.527Z,0.77
2023-04-04T12:19:03.376Z,1.26
2023-04-04T12:20:02.935Z,2.28
2023-04-04T12:21:03.454Z,1.92
2023-04-04T12:22:05.232Z,3.32
2023-04-04T12:23:03.330Z,2.44
2023-04-04T12:24:03.203Z,1.30
2023-04-04T12:25:03.317Z,2.04
2023-04-04T12:26:03.046Z,2.89
2023-04-04T12:27:02.128Z,3.05
2023-04-04T12:28:02.260Z,2.16
2023-04-04T12:29:02.790Z,1.76
2023-04-04T12:30:02.179Z,2.08
2023-04-04T12:31:02.434Z,1.04
2023-04-04T12:32:02.578Z,1.12
2023-04-04T12:33:02.852Z,0.68
2023-04-04T12:34:03.093Z,0.64
2023-04-04T12:35:02.621Z,1.71
2023-04-04T12:36:02.779Z,2.20
2023-04-04T12:37:03.087Z,1.52
2023-04-04T12:38:02.295Z,1.30
2023-04-04T12:39:02.734Z,2.32
2023-04-04T12:40:02.570Z,1.18
2023-04-04T12:41:02.557Z,1.87
2023-04-04T12:42:02.485Z,2.85
2023-04-04T12:43:03.145Z,1.60
2023-04-04T12:44:02.732Z,3.05
2023-04-04T12:45:02.868Z,1.60
2023-04-04T12:46:03.093Z,1.28
2023-04-04T12:47:02.706Z,0.98
2023-04-04T12:48:03.207Z,0.76
2023-04-04T12:49:03.380Z,0.64
2023-04-04T12:50:03.336Z,1.71
2023-04-04T12:51:03.116Z,1.06
2023-04-04T12:52:03.212Z,1.52
2023-04-04T12:53:24.073Z,2.48
2023-04-04T12:54:02.719Z,2.80
2023-04-04T12:56:02.891Z,2.00
2023-04-04T12:57:02.390Z,1.75
2023-04-04T12:58:02.906Z,1.68
2023-04-04T12:59:03.098Z,1.48
2023-04-04T13:00:03.109Z,1.64
2023-04-04T13:01:02.994Z,2.56
2023-04-04T13:02:02.778Z,1.26
2023-04-04T13:03:02.583Z,1.42
2023-04-04T13:04:02.194Z,2.16
2023-04-04T13:05:02.552Z,1.52
2023-04-04T13:06:03.089Z,0.68
2023-04-04T13:07:02.709Z,1.47
2023-04-04T13:08:03.323Z,2.16
2023-04-04T13:09:02.804Z,1.67
2023-04-04T13:10:02.820Z,2.32
2023-04-04T13:11:03.497Z,1.92
2023-04-04T13:12:02.810Z,1.95
2023-04-04T13:13:02.686Z,1.47
2023-04-04T13:14:02.709Z,0.96
2023-04-04T13:15:02.708Z,1.12
2023-04-04T13:16:02.274Z,1.38
2023-04-04T13:17:02.789Z,1.24
2023-04-04T13:18:02.778Z,1.56
2023-04-04T13:19:02.651Z,1.79
2023-04-04T13:20:02.831Z,1.36